Time,TemperatureF,DewpointF,PressureIn,WindDirection,WindDirectionDegrees,WindSpeedMPH,WindSpeedGustMPH,Humidity,HourlyPrecipIn,Conditions,Clouds,dailyrainin,SoftwareType,DateUTC
2013-03-28 00:00:00,31.6,25.8,30.14,WNW,292,1.0,1.0,79,0.00,,,0.04,Wunderground v.1.15,2013-03-28 04:00:00,
2013-03-28 00:10:00,31.5,26.0,30.14,SW,230,4.0,4.0,80,0.00,,,0.00,Wunderground v.1.15,2013-03-28 04:10:00,
2013-03-28 00:20:00,31.3,26.1,30.14,NW,321,5.0,5.0,81,0.00,,,0.00,Wunderground v.1.15,2013-03-28 04:20:00,
2013-03-28 00:30:00,31.2,26.0,30.14,NW,324,4.0,4.0,81,0.00,,,0.00,Wunderground v.1.15,2013-03-28 04:30:00,
2013-03-28 00:40:00,31.1,26.2,30.14,North,355,5.0,8.0,82,0.00,,,0.00,Wunderground v.1.15,2013-03-28 04:40:00,
2013-03-28 00:50:00,31.0,26.4,30.13,NW,323,6.0,6.0,83,0.00,,,0.00,Wunderground v.1.15,2013-03-28 04:50:00,
2013-03-28 01:00:00,30.9,26.6,30.13,West,271,5.0,7.0,84,0.00,,,0.00,Wunderground v.1.15,2013-03-28 05:00:00,
2013-03-28 01:10:00,30.8,26.8,30.13,NNW,334,4.0,6.0,85,0.00,,,0.00,Wunderground v.1.15,2013-03-28 05:10:00,
2013-03-28 01:20:00,30.8,26.8,30.13,NW,325,4.0,4.0,85,0.00,,,0.00,Wunderground v.1.15,2013-03-28 05:20:00,
2013-03-28 01:30:00,30.7,26.4,30.12,NW,312,3.0,4.0,84,0.00,,,0.00,Wunderground v.1.15,2013-03-28 05:30:00,
2013-03-28 01:40:00,30.7,26.4,30.13,NW,320,3.0,3.0,84,0.00,,,0.00,Wunderground v.1.15,2013-03-28 05:40:00,
2013-03-28 01:50:00,30.8,26.2,30.13,NNW,341,3.0,4.0,83,0.00,,,0.00,Wunderground v.1.15,2013-03-28 05:50:00,
2013-03-28 02:00:00,31.0,26.1,30.13,NNE,29,4.0,5.0,82,0.00,,,0.00,Wunderground v.1.15,2013-03-28 06:00:00,
2013-03-28 02:10:00,31.1,26.0,30.13,NNW,338,3.0,6.0,81,0.00,,,0.00,Wunderground v.1.15,2013-03-28 06:10:00,
2013-03-28 02:20:00,31.1,26.2,30.13,WNW,294,6.0,6.0,82,0.00,,,0.00,Wunderground v.1.15,2013-03-28 06:20:00,
2013-03-28 02:30:00,31.1,26.2,30.13,NW,326,3.0,6.0,82,0.00,,,0.00,Wunderground v.1.15,2013-03-28 06:30:00,
2013-03-28 02:40:00,31.0,25.9,30.13,NNW,327,5.0,5.0,81,0.00,,,0.00,Wunderground v.1.15,2013-03-28 06:40:00,
2013-03-28 02:50:00,31.0,26.1,30.13,NNW,343,4.0,4.0,82,0.00,,,0.00,Wunderground v.1.15,2013-03-28 06:50:00,
2013-03-28 03:00:00,31.0,25.9,30.12,WNW,296,4.0,7.0,81,0.00,,,0.00,Wunderground v.1.15,2013-03-28 07:00:00,
2013-03-28 03:10:00,31.1,26.0,30.12,NW,321,4.0,4.0,81,0.00,,,0.00,Wunderground v.1.15,2013-03-28 07:10:00,
2013-03-28 03:20:00,31.0,25.9,30.12,NNW,329,3.0,5.0,81,0.00,,,0.00,Wunderground v.1.15,2013-03-28 07:20:00,
2013-03-28 03:30:00,31.0,25.9,30.12,NNW,345,2.0,2.0,81,0.00,,,0.00,Wunderground v.1.15,2013-03-28 07:30:00,
2013-03-28 03:40:00,30.9,25.8,30.12,NW,314,2.0,4.0,81,0.00,,,0.00,Wunderground v.1.15,2013-03-28 07:40:00,
2013-03-28 03:50:00,30.9,25.8,30.12,NNW,329,2.0,2.0,81,0.00,,,0.00,Wunderground v.1.15,2013-03-28 07:50:00,
2013-03-28 04:00:00,30.8,25.4,30.12,NW,310,2.0,2.0,80,0.00,,,0.00,Wunderground v.1.15,2013-03-28 08:00:00,
2013-03-28 04:10:00,30.8,25.4,30.12,NE,51,2.0,2.0,80,0.00,,,0.00,Wunderground v.1.15,2013-03-28 08:10:00,
2013-03-28 04:20:00,30.8,25.4,30.12,NW,323,2.0,5.0,80,0.00,,,0.00,Wunderground v.1.15,2013-03-28 08:20:00,
2013-03-28 04:30:00,30.7,25.0,30.12,NNE,19,3.0,3.0,79,0.00,,,0.00,Wunderground v.1.15,2013-03-28 08:30:00,
2013-03-28 04:40:00,30.7,24.7,30.11,NNE,15,3.0,3.0,78,0.00,,,0.00,Wunderground v.1.15,2013-03-28 08:40:00,
2013-03-28 04:50:00,30.8,24.4,30.12,NNW,344,3.0,3.0,77,0.00,,,0.00,Wunderground v.1.15,2013-03-28 08:50:00,
2013-03-28 05:00:00,30.8,24.4,30.12,NNE,24,1.0,1.0,77,0.00,,,0.00,Wunderground v.1.15,2013-03-28 09:00:00,
2013-03-28 05:10:00,30.7,24.0,30.12,WNW,297,1.0,1.0,76,0.00,,,0.00,Wunderground v.1.15,2013-03-28 09:10:00,
2013-03-28 05:20:00,30.7,24.0,30.12,WNW,301,2.0,2.0,76,0.00,,,0.00,Wunderground v.1.15,2013-03-28 09:20:00,
2013-03-28 05:30:00,30.8,24.1,30.13,NNW,348,4.0,7.0,76,0.00,,,0.00,Wunderground v.1.15,2013-03-28 09:30:00,
2013-03-28 05:40:00,30.8,24.1,30.13,NW,319,3.0,4.0,76,0.00,,,0.00,Wunderground v.1.15,2013-03-28 09:40:00,
2013-03-28 05:50:00,30.8,24.1,30.13,NNW,330,4.0,6.0,76,0.00,,,0.00,Wunderground v.1.15,2013-03-28 09:50:00,
2013-03-28 06:00:00,30.8,23.8,30.13,WNW,302,4.0,4.0,75,0.00,,,0.00,Wunderground v.1.15,2013-03-28 10:00:00,
2013-03-28 06:10:00,30.7,23.7,30.13,North,10,4.0,5.0,75,0.00,,,0.00,Wunderground v.1.15,2013-03-28 10:10:00,
2013-03-28 06:20:00,30.7,23.7,30.13,NW,319,4.0,4.0,75,0.00,,,0.00,Wunderground v.1.15,2013-03-28 10:20:00,
2013-03-28 06:30:00,30.6,23.6,30.14,NW,311,4.0,7.0,75,0.00,,,0.00,Wunderground v.1.15,2013-03-28 10:30:00,
2013-03-28 06:40:00,30.6,23.3,30.13,NW,323,5.0,8.0,74,0.00,,,0.00,Wunderground v.1.15,2013-03-28 10:40:00,
2013-03-28 06:50:00,30.5,22.9,30.14,NW,304,4.0,4.0,73,0.00,,,0.00,Wunderground v.1.15,2013-03-28 10:50:00,
2013-03-28 07:00:00,30.4,22.8,30.14,NNW,327,3.0,3.0,73,0.00,,,0.00,Wunderground v.1.15,2013-03-28 11:00:00,
2013-03-28 07:10:00,30.3,22.4,30.14,WNW,302,3.0,7.0,72,0.00,,,0.00,Wunderground v.1.15,2013-03-28 11:10:00,
2013-03-28 07:20:00,30.3,22.7,30.15,NW,312,3.0,3.0,73,0.00,,,0.00,Wunderground v.1.15,2013-03-28 11:20:00,
2013-03-28 07:30:00,30.3,22.4,30.15,WNW,292,4.0,5.0,72,0.00,,,0.00,Wunderground v.1.15,2013-03-28 11:30:00,
2013-03-28 07:40:00,30.3,22.4,30.15,NNW,346,4.0,4.0,72,0.00,,,0.00,Wunderground v.1.15,2013-03-28 11:40:00,
2013-03-28 07:50:00,30.4,21.8,30.15,NNW,336,7.0,7.0,70,0.00,,,0.00,Wunderground v.1.15,2013-03-28 11:50:00,
2013-03-28 08:00:00,30.5,21.9,30.16,NNE,15,6.0,6.0,70,0.00,,,0.00,Wunderground v.1.15,2013-03-28 12:00:00,
2013-03-28 08:10:00,30.5,21.9,30.15,NNW,331,5.0,5.0,70,0.00,,,0.00,Wunderground v.1.15,2013-03-28 12:10:00,
2013-03-28 08:20:00,30.5,21.9,30.16,NNW,327,6.0,7.0,70,0.00,,,0.00,Wunderground v.1.15,2013-03-28 12:20:00,
2013-03-28 08:30:00,30.6,21.6,30.16,North,355,6.0,6.0,69,0.00,,,0.00,Wunderground v.1.15,2013-03-28 12:30:00,
2013-03-28 08:40:00,30.5,21.5,30.16,NNW,337,5.0,5.0,69,0.00,,,0.00,Wunderground v.1.15,2013-03-28 12:40:00,
2013-03-28 08:50:00,30.5,21.9,30.16,NNW,327,3.0,3.0,70,0.00,,,0.00,Wunderground v.1.15,2013-03-28 12:50:00,
2013-03-28 09:00:00,30.6,22.0,30.17,NNW,336,3.0,7.0,70,0.00,,,0.00,Wunderground v.1.15,2013-03-28 13:00:00,
2013-03-28 09:10:00,30.8,21.8,30.17,NNW,333,4.0,4.0,69,0.00,,,0.00,Wunderground v.1.15,2013-03-28 13:10:00,
2013-03-28 09:20:00,30.8,21.8,30.17,NNW,333,3.0,6.0,69,0.00,,,0.00,Wunderground v.1.15,2013-03-28 13:20:00,
2013-03-28 09:30:00,30.9,21.9,30.17,NNE,24,4.0,5.0,69,0.00,,,0.00,Wunderground v.1.15,2013-03-28 13:30:00,
2013-03-28 09:40:00,31.2,22.2,30.17,NNW,328,4.0,5.0,69,0.00,,,0.00,Wunderground v.1.15,2013-03-28 13:40:00,
2013-03-28 09:50:00,31.6,22.9,30.17,NW,309,4.0,4.0,70,0.00,,,0.00,Wunderground v.1.15,2013-03-28 13:50:00,
2013-03-28 10:00:00,32.0,23.0,30.17,ENE,69,3.0,3.0,69,0.00,,,0.00,Wunderground v.1.15,2013-03-28 14:00:00,
2013-03-28 10:10:00,31.9,22.9,30.17,NNW,340,5.0,5.0,69,0.00,,,0.00,Wunderground v.1.15,2013-03-28 14:10:00,
2013-03-28 10:20:00,33.1,24.0,30.18,NW,314,3.0,8.0,69,0.00,,,0.00,Wunderground v.1.15,2013-03-28 14:20:00,
2013-03-28 10:30:00,33.5,24.4,30.18,North,360,4.0,4.0,69,0.00,,,0.00,Wunderground v.1.15,2013-03-28 14:30:00,
2013-03-28 10:40:00,34.1,24.6,30.18,West,260,3.0,8.0,68,0.00,,,0.00,Wunderground v.1.15,2013-03-28 14:40:00,
2013-03-28 10:50:00,34.6,24.8,30.18,SSW,205,3.0,4.0,67,0.00,,,0.00,Wunderground v.1.15,2013-03-28 14:50:00,
2013-03-28 11:00:00,35.2,24.6,30.17,NNW,346,5.0,5.0,65,0.00,,,0.00,Wunderground v.1.15,2013-03-28 15:00:00,
2013-03-28 11:10:00,35.7,25.1,30.17,West,273,5.0,5.0,65,0.00,,,0.00,Wunderground v.1.15,2013-03-28 15:10:00,
2013-03-28 11:20:00,36.2,25.2,30.17,NW,323,5.0,7.0,64,0.00,,,0.00,Wunderground v.1.15,2013-03-28 15:20:00,
2013-03-28 11:30:00,36.8,25.8,30.17,WSW,253,5.0,6.0,64,0.00,,,0.00,Wunderground v.1.15,2013-03-28 15:30:00,
2013-03-28 11:40:00,37.2,25.8,30.17,West,271,5.0,5.0,63,0.00,,,0.00,Wunderground v.1.15,2013-03-28 15:40:00,
2013-03-28 11:50:00,37.5,26.0,30.17,NNW,334,6.0,6.0,63,0.00,,,0.00,Wunderground v.1.15,2013-03-28 15:50:00,
2013-03-28 12:00:00,37.9,26.4,30.17,NW,315,6.0,6.0,63,0.00,,,0.00,Wunderground v.1.15,2013-03-28 16:00:00,
2013-03-28 12:10:00,38.6,26.7,30.17,WNW,302,5.0,8.0,62,0.00,,,0.00,Wunderground v.1.15,2013-03-28 16:10:00,
2013-03-28 12:20:00,39.2,26.5,30.17,WNW,302,5.0,6.0,60,0.00,,,0.00,Wunderground v.1.15,2013-03-28 16:20:00,
2013-03-28 12:30:00,39.1,26.0,30.17,WNW,292,6.0,6.0,59,0.00,,,0.00,Wunderground v.1.15,2013-03-28 16:30:00,
2013-03-28 12:40:00,40.0,26.8,30.16,NW,318,5.0,5.0,59,0.00,,,0.00,Wunderground v.1.15,2013-03-28 16:40:00,
2013-03-28 12:50:00,40.2,26.6,30.16,NNW,329,5.0,6.0,58,0.00,,,0.00,Wunderground v.1.15,2013-03-28 16:50:00,
2013-03-28 13:00:00,40.5,26.9,30.16,NW,321,5.0,7.0,58,0.00,,,0.01,Wunderground v.1.15,2013-03-28 17:00:00,
2013-03-28 13:10:00,41.0,27.3,30.15,NNW,333,5.0,5.0,58,0.00,,,0.01,Wunderground v.1.15,2013-03-28 17:10:00,
2013-03-28 13:20:00,41.2,26.7,30.15,NW,321,5.0,6.0,56,0.00,,,0.01,Wunderground v.1.15,2013-03-28 17:20:00,
2013-03-28 13:30:00,41.5,27.4,30.15,West,260,5.0,5.0,57,0.00,,,0.01,Wunderground v.1.15,2013-03-28 17:30:00,
2013-03-28 13:40:00,42.3,28.6,30.15,NW,310,6.0,6.0,58,0.00,,,0.01,Wunderground v.1.15,2013-03-28 17:40:00,
2013-03-28 13:50:00,42.3,27.3,30.15,NW,326,4.0,6.0,55,0.00,,,0.01,Wunderground v.1.15,2013-03-28 17:50:00,
2013-03-28 14:00:00,43.2,28.1,30.15,NNW,329,5.0,5.0,55,0.00,,,0.01,Wunderground v.1.15,2013-03-28 18:00:00,
2013-03-28 14:10:00,44.2,29.5,30.14,NE,38,3.0,3.0,56,0.00,,,0.01,Wunderground v.1.15,2013-03-28 18:10:00,
2013-03-28 14:20:00,43.9,28.3,30.14,North,350,4.0,4.0,54,0.00,,,0.01,Wunderground v.1.15,2013-03-28 18:20:00,
2013-03-28 14:30:00,43.8,27.3,30.14,NNE,22,5.0,5.0,52,0.00,,,0.01,Wunderground v.1.15,2013-03-28 18:30:00,
2013-03-28 14:40:00,44.3,28.7,30.14,NNW,329,4.0,4.0,54,0.00,,,0.01,Wunderground v.1.15,2013-03-28 18:40:00,
2013-03-28 14:50:00,44.7,28.1,30.14,WNW,283,5.0,5.0,52,0.00,,,0.01,Wunderground v.1.15,2013-03-28 18:50:00,
2013-03-28 15:00:00,45.5,29.3,30.14,WNW,301,5.0,5.0,53,0.00,,,0.01,Wunderground v.1.15,2013-03-28 19:00:00,
2013-03-28 15:10:00,46.1,29.4,30.14,SW,230,4.0,5.0,52,0.00,,,0.01,Wunderground v.1.15,2013-03-28 19:10:00,
2013-03-28 15:20:00,45.8,28.7,30.13,NW,318,6.0,6.0,51,0.00,,,0.01,Wunderground v.1.15,2013-03-28 19:20:00,
2013-03-28 15:30:00,45.4,28.3,30.13,NW,325,5.0,5.0,51,0.00,,,0.01,Wunderground v.1.15,2013-03-28 19:30:00,
2013-03-28 15:40:00,45.5,27.4,30.13,WSW,246,4.0,5.0,49,0.00,,,0.01,Wunderground v.1.15,2013-03-28 19:40:00,
2013-03-28 15:50:00,44.2,26.2,30.13,NNE,19,5.0,5.0,49,0.00,,,0.01,Wunderground v.1.15,2013-03-28 19:50:00,
2013-03-28 16:00:00,42.6,25.7,30.13,North,350,5.0,5.0,51,0.00,,,0.01,Wunderground v.1.15,2013-03-28 20:00:00,
2013-03-28 16:10:00,42.4,26.0,30.13,NNW,345,4.0,4.0,52,0.00,,,0.01,Wunderground v.1.15,2013-03-28 20:10:00,
2013-03-28 16:20:00,44.0,28.0,30.13,NNW,329,3.0,6.0,53,0.00,,,0.01,Wunderground v.1.15,2013-03-28 20:20:00,
2013-03-28 16:30:00,43.8,26.3,30.13,NE,34,4.0,4.0,50,0.00,,,0.01,Wunderground v.1.15,2013-03-28 20:30:00,
2013-03-28 16:40:00,43.5,26.1,30.13,SSE,157,2.0,2.0,50,0.00,,,0.01,Wunderground v.1.15,2013-03-28 20:40:00,
2013-03-28 16:50:00,43.4,26.5,30.13,NE,38,2.0,2.0,51,0.00,,,0.01,Wunderground v.1.15,2013-03-28 20:50:00,
2013-03-28 17:00:00,43.7,26.3,30.13,NNW,332,2.0,6.0,50,0.00,,,0.01,Wunderground v.1.15,2013-03-28 21:00:00,
2013-03-28 17:10:00,43.6,27.1,30.13,NW,304,2.0,2.0,52,0.00,,,0.01,Wunderground v.1.15,2013-03-28 21:10:00,
2013-03-28 17:20:00,44.8,26.8,30.13,NNE,22,2.0,2.0,49,0.00,,,0.01,Wunderground v.1.15,2013-03-28 21:20:00,
2013-03-28 17:30:00,44.3,26.3,30.13,NW,312,1.0,1.0,49,0.00,,,0.01,Wunderground v.1.15,2013-03-28 21:30:00,
2013-03-28 17:40:00,44.1,26.6,30.14,NNE,26,2.0,4.0,50,0.00,,,0.01,Wunderground v.1.15,2013-03-28 21:40:00,
2013-03-28 17:50:00,42.9,25.5,30.14,North,360,4.0,4.0,50,0.00,,,0.01,Wunderground v.1.15,2013-03-28 21:50:00,
2013-03-28 18:00:00,42.5,25.6,30.14,NNE,17,2.0,2.0,51,0.00,,,0.01,Wunderground v.1.15,2013-03-28 22:00:00,
2013-03-28 18:10:00,42.5,26.1,30.14,NNW,330,1.0,7.0,52,0.00,,,0.01,Wunderground v.1.15,2013-03-28 22:10:00,
2013-03-28 18:20:00,42.5,25.6,30.14,NNW,329,3.0,4.0,51,0.00,,,0.01,Wunderground v.1.15,2013-03-28 22:20:00,
2013-03-28 18:30:00,42.2,25.8,30.14,NNE,33,3.0,5.0,52,0.00,,,0.01,Wunderground v.1.15,2013-03-28 22:30:00,
2013-03-28 18:40:00,41.8,25.9,30.15,North,5,3.0,3.0,53,0.00,,,0.01,Wunderground v.1.15,2013-03-28 22:40:00,
2013-03-28 18:50:00,41.4,25.5,30.15,NNE,24,2.0,4.0,53,0.00,,,0.01,Wunderground v.1.15,2013-03-28 22:50:00,
2013-03-28 19:00:00,40.9,25.5,30.15,NW,325,2.0,4.0,54,0.00,,,0.01,Wunderground v.1.15,2013-03-28 23:00:00,
2013-03-28 19:10:00,40.6,25.2,30.15,NNE,22,1.0,1.0,54,0.00,,,0.01,Wunderground v.1.15,2013-03-28 23:10:00,
2013-03-28 19:20:00,40.1,25.2,30.16,North,355,1.0,1.0,55,0.00,,,0.01,Wunderground v.1.15,2013-03-28 23:20:00,
2013-03-28 19:30:00,39.7,24.8,30.16,NNW,334,1.0,1.0,55,0.00,,,0.01,Wunderground v.1.15,2013-03-28 23:30:00,
2013-03-28 19:40:00,39.4,25.0,30.16,NNW,330,1.0,1.0,56,0.00,,,0.01,Wunderground v.1.15,2013-03-28 23:40:00,
2013-03-28 19:50:00,39.2,25.2,30.16,WNW,292,1.0,1.0,57,0.00,,,0.01,Wunderground v.1.15,2013-03-28 23:50:00,
2013-03-28 20:00:00,38.9,24.9,30.17,NNE,30,1.0,2.0,57,0.00,,,0.01,Wunderground v.1.15,2013-03-29 00:00:00,
2013-03-28 20:10:00,38.6,25.1,30.17,NE,42,1.0,1.0,58,0.00,,,0.01,Wunderground v.1.15,2013-03-29 00:10:00,
2013-03-28 20:20:00,38.5,25.0,30.17,NE,34,1.0,1.0,58,0.00,,,0.01,Wunderground v.1.15,2013-03-29 00:20:00,
2013-03-28 20:30:00,38.3,24.8,30.17,NE,34,0.0,0.0,58,0.00,,,0.01,Wunderground v.1.15,2013-03-29 00:30:00,
2013-03-28 20:40:00,38.2,24.7,30.17,North,349,1.0,1.0,58,0.00,,,0.01,Wunderground v.1.15,2013-03-29 00:40:00,
2013-03-28 20:50:00,38.2,24.7,30.17,NNE,33,1.0,1.0,58,0.00,,,0.01,Wunderground v.1.15,2013-03-29 00:50:00,
2013-03-28 21:00:00,38.2,24.7,30.17,NE,36,2.0,4.0,58,0.00,,,0.01,Wunderground v.1.15,2013-03-29 01:00:00,
2013-03-28 21:10:00,38.1,24.6,30.17,NE,35,1.0,3.0,58,0.00,,,0.01,Wunderground v.1.15,2013-03-29 01:10:00,
2013-03-28 21:20:00,38.2,24.7,30.17,NE,43,2.0,2.0,58,0.00,,,0.01,Wunderground v.1.15,2013-03-29 01:20:00,
2013-03-28 21:30:00,38.1,24.6,30.17,NNE,21,2.0,4.0,58,0.00,,,0.01,Wunderground v.1.15,2013-03-29 01:30:00,
2013-03-28 21:40:00,38.0,24.5,30.18,NNW,330,1.0,1.0,58,0.00,,,0.01,Wunderground v.1.15,2013-03-29 01:40:00,
2013-03-28 21:50:00,37.9,24.4,30.18,NNE,15,0.0,0.0,58,0.00,,,0.01,Wunderground v.1.15,2013-03-29 01:50:00,
2013-03-28 22:00:00,37.8,24.3,30.18,NNE,32,1.0,1.0,58,0.00,,,0.01,Wunderground v.1.15,2013-03-29 02:00:00,
2013-03-28 22:10:00,37.7,24.6,30.19,NNW,348,1.0,1.0,59,0.00,,,0.01,Wunderground v.1.15,2013-03-29 02:10:00,
2013-03-28 22:20:00,37.4,24.4,30.19,NNW,332,0.0,0.0,59,0.00,,,0.01,Wunderground v.1.15,2013-03-29 02:20:00,
2013-03-28 22:30:00,37.4,24.4,30.19,NW,308,0.0,0.0,59,0.00,,,0.01,Wunderground v.1.15,2013-03-29 02:30:00,
2013-03-28 22:40:00,37.4,24.4,30.19,NNW,339,1.0,1.0,59,0.00,,,0.01,Wunderground v.1.15,2013-03-29 02:40:00,
2013-03-28 22:50:00,37.3,24.3,30.19,North,349,1.0,1.0,59,0.00,,,0.01,Wunderground v.1.15,2013-03-29 02:50:00,
2013-03-28 23:00:00,37.3,24.3,30.19,NNW,344,0.0,0.0,59,0.00,,,0.01,Wunderground v.1.15,2013-03-29 03:00:00,
2013-03-28 23:10:00,37.1,24.1,30.19,NNW,344,0.0,0.0,59,0.00,,,0.01,Wunderground v.1.15,2013-03-29 03:10:00,
2013-03-28 23:20:00,36.8,24.2,30.19,NNW,344,0.0,0.0,60,0.00,,,0.01,Wunderground v.1.15,2013-03-29 03:20:00,
2013-03-28 23:30:00,36.4,24.2,30.19,NNW,344,0.0,1.0,61,0.00,,,0.01,Wunderground v.1.15,2013-03-29 03:30:00,
2013-03-28 23:40:00,36.2,24.0,30.19,NNW,344,0.0,0.0,61,0.00,,,0.01,Wunderground v.1.15,2013-03-29 03:40:00,
2013-03-28 23:50:00,35.9,24.1,30.19,NNW,344,0.0,0.0,62,0.00,,,0.01,Wunderground v.1.15,2013-03-29 03:50:00,